createdAt,value
2022-12-26T00:00:16.800Z,8.96
2022-12-26T00:02:48.921Z,8.92
2022-12-26T00:05:21.132Z,8.94
2022-12-26T00:07:52.018Z,9.14
2022-12-26T00:10:25.069Z,9.27
2022-12-26T00:12:57.008Z,9.09
2022-12-26T00:15:29.170Z,9.04
2022-12-26T00:18:01.243Z,9.14
2022-12-26T00:20:33.332Z,9.10
2022-12-26T00:23:03.785Z,9.00
2022-12-26T00:25:35.788Z,8.99
2022-12-26T00:28:06.385Z,8.96
2022-12-26T00:30:39.436Z,8.84
2022-12-26T00:33:09.871Z,8.91
2022-12-26T00:35:40.303Z,8.96
2022-12-26T00:38:11.878Z,8.98
2022-12-26T00:40:44.250Z,9.04
2022-12-26T00:43:14.678Z,8.95
2022-12-26T00:45:47.259Z,8.98
2022-12-26T00:48:18.215Z,8.98
2022-12-26T00:50:50.032Z,8.96
2022-12-26T00:53:21.252Z,9.05
2022-12-26T00:55:53.289Z,9.06
2022-12-26T00:58:24.856Z,9.12
2022-12-26T01:00:56.300Z,9.18
2022-12-26T01:03:26.896Z,9.28
2022-12-26T01:05:57.276Z,9.22
2022-12-26T01:08:28.093Z,9.22
2022-12-26T01:11:00.589Z,9.24
2022-12-26T01:13:31.246Z,9.22
2022-12-26T01:16:06.541Z,9.28
2022-12-26T01:18:37.371Z,9.22
2022-12-26T01:21:11.676Z,9.45
2022-12-26T01:23:45.406Z,9.36
2022-12-26T01:26:20.317Z,9.30
2022-12-26T01:28:52.615Z,9.36
2022-12-26T01:31:24.864Z,9.29
2022-12-26T01:33:55.314Z,9.40
2022-12-26T01:36:26.553Z,9.42
2022-12-26T01:38:57.108Z,9.32
2022-12-26T01:41:30.854Z,9.30
2022-12-26T01:44:08.533Z,9.44
2022-12-26T01:46:44.898Z,9.48
2022-12-26T01:49:18.460Z,9.35
2022-12-26T01:51:51.949Z,9.42
2022-12-26T01:54:39.887Z,9.39
2022-12-26T01:56:57.351Z,9.41
2022-12-26T01:59:30.505Z,9.19
2022-12-26T02:02:02.346Z,9.08
2022-12-26T02:04:54.375Z,9.15
2022-12-26T02:07:28.286Z,9.10
2022-12-26T02:09:59.140Z,9.16
2022-12-26T02:12:38.000Z,9.20
2022-12-26T02:15:08.753Z,9.16
2022-12-26T02:17:40.483Z,9.30
2022-12-26T02:20:29.035Z,9.23
2022-12-26T02:23:08.524Z,9.34
2022-12-26T02:25:50.767Z,9.46
2022-12-26T02:28:40.843Z,9.57
2022-12-26T02:31:33.796Z,9.52
2022-12-26T02:34:10.279Z,9.67
2022-12-26T02:37:03.453Z,9.55
2022-12-26T02:39:48.660Z,9.57
2022-12-26T02:42:39.021Z,9.60
2022-12-26T02:45:46.192Z,9.67
2022-12-26T02:48:27.450Z,9.71
2022-12-26T02:51:18.535Z,9.66
2022-12-26T02:54:28.101Z,9.62
2022-12-26T02:57:19.157Z,9.62
2022-12-26T03:00:22.427Z,9.62
2022-12-26T03:03:22.447Z,9.55
2022-12-26T03:06:28.088Z,9.62
2022-12-26T03:09:25.093Z,9.63
2022-12-26T03:12:19.659Z,9.64
2022-12-26T03:14:58.974Z,9.73
2022-12-26T03:17:33.755Z,9.71
2022-12-26T03:20:08.149Z,9.73
2022-12-26T03:22:53.784Z,9.70
2022-12-26T03:25:50.838Z,9.76
2022-12-26T03:28:25.413Z,9.80
2022-12-26T03:31:00.227Z,9.78
2022-12-26T03:33:51.841Z,9.79
2022-12-26T03:36:34.649Z,9.92
2022-12-26T03:39:57.174Z,9.98
2022-12-26T03:43:08.248Z,10.00
2022-12-26T03:46:08.946Z,9.69
2022-12-26T03:49:09.242Z,9.81
2022-12-26T03:52:24.739Z,9.79
2022-12-26T03:55:32.299Z,9.97
2022-12-26T03:58:41.743Z,9.93
2022-12-26T04:01:33.098Z,9.99
2022-12-26T04:04:24.772Z,9.88
2022-12-26T04:07:19.162Z,10.02
2022-12-26T04:10:26.899Z,9.98
2022-12-26T04:13:18.153Z,10.20
2022-12-26T04:16:10.785Z,10.20
2022-12-26T04:19:11.335Z,10.08
2022-12-26T04:22:03.646Z,10.15
2022-12-26T04:24:55.749Z,10.16
2022-12-26T04:27:47.594Z,10.23
2022-12-26T04:30:37.135Z,10.27
2022-12-26T04:33:30.970Z,10.20
2022-12-26T04:36:22.589Z,10.04
2022-12-26T04:39:14.006Z,10.18
2022-12-26T04:42:05.270Z,10.19
2022-12-26T04:44:37.578Z,10.08
2022-12-26T04:47:08.634Z,10.30
2022-12-26T04:50:04.500Z,10.18
2022-12-26T04:52:53.375Z,10.22
2022-12-26T04:55:23.840Z,10.26
2022-12-26T04:57:54.704Z,10.24
2022-12-26T05:00:27.850Z,10.24
2022-12-26T05:03:19.434Z,10.26
2022-12-26T05:06:10.582Z,10.19
2022-12-26T05:09:03.726Z,10.29
2022-12-26T05:11:36.828Z,10.14
2022-12-26T05:14:07.514Z,10.22
2022-12-26T05:16:56.010Z,10.34
2022-12-26T05:19:44.452Z,10.18
2022-12-26T05:22:35.776Z,10.29
2022-12-26T05:25:25.899Z,10.14
2022-12-26T05:28:14.245Z,10.08
2022-12-26T05:30:45.747Z,10.22
2022-12-26T05:33:35.124Z,10.16
2022-12-26T05:36:07.540Z,10.16
2022-12-26T05:38:39.037Z,10.33
2022-12-26T05:41:11.817Z,10.29
2022-12-26T05:43:42.464Z,10.35
2022-12-26T05:46:13.171Z,10.37
2022-12-26T05:48:43.775Z,10.32
2022-12-26T05:51:14.415Z,10.30
2022-12-26T05:53:46.229Z,10.32
2022-12-26T05:56:20.634Z,10.27
2022-12-26T05:58:57.188Z,10.30
2022-12-26T06:01:31.301Z,10.33
2022-12-26T06:04:03.704Z,10.28
2022-12-26T06:06:35.365Z,10.31
2022-12-26T06:09:05.907Z,10.26
2022-12-26T06:11:46.908Z,10.32
2022-12-26T06:14:12.846Z,10.35
2022-12-26T06:16:43.985Z,10.32
2022-12-26T06:19:14.530Z,10.23
2022-12-26T06:21:46.471Z,10.34
2022-12-26T06:24:18.325Z,10.30
2022-12-26T06:26:50.516Z,10.39
2022-12-26T06:29:21.356Z,10.51
2022-12-26T06:31:52.932Z,10.42
2022-12-26T06:34:24.526Z,10.36
2022-12-26T06:36:55.688Z,10.42
2022-12-26T06:39:27.574Z,10.35
2022-12-26T06:41:59.244Z,10.22
2022-12-26T06:44:29.874Z,10.19
2022-12-26T06:47:00.854Z,10.42
2022-12-26T06:49:33.096Z,10.38
2022-12-26T06:52:03.520Z,10.32
2022-12-26T06:54:35.248Z,10.20
2022-12-26T06:57:08.734Z,10.45
2022-12-26T06:59:39.228Z,10.44
2022-12-26T07:02:12.149Z,10.51
2022-12-26T07:04:46.201Z,10.51
2022-12-26T07:07:18.237Z,10.42
2022-12-26T07:09:49.185Z,10.47
2022-12-26T07:12:21.505Z,10.37
2022-12-26T07:14:52.684Z,10.52
2022-12-26T07:17:25.403Z,10.40
2022-12-26T07:19:56.168Z,10.55
2022-12-26T07:22:28.014Z,10.50
2022-12-26T07:25:00.265Z,10.34
2022-12-26T07:27:32.158Z,10.38
2022-12-26T07:30:02.886Z,10.38
2022-12-26T07:32:34.607Z,10.53
2022-12-26T07:35:05.450Z,10.58
2022-12-26T07:37:37.625Z,10.44
2022-12-26T07:40:08.955Z,10.48
2022-12-26T07:42:39.425Z,10.34
2022-12-26T07:45:10.848Z,10.36
2022-12-26T07:47:43.119Z,10.30
2022-12-26T07:50:13.658Z,10.40
2022-12-26T07:52:44.402Z,10.44
2022-12-26T07:55:14.931Z,10.42
2022-12-26T07:57:49.393Z,10.40
2022-12-26T08:00:19.057Z,10.43
2022-12-26T08:02:52.738Z,10.44
2022-12-26T08:05:26.273Z,10.31
2022-12-26T08:08:01.084Z,10.44
2022-12-26T08:10:31.512Z,10.48
2022-12-26T08:13:02.168Z,10.64
2022-12-26T08:15:32.829Z,10.46
2022-12-26T08:18:03.662Z,10.54
2022-12-26T08:20:34.973Z,10.48
2022-12-26T08:23:07.134Z,10.68
2022-12-26T08:25:37.770Z,10.60
2022-12-26T08:28:09.237Z,10.50
2022-12-26T08:30:46.656Z,10.48
2022-12-26T08:33:17.956Z,10.60
2022-12-26T08:35:49.280Z,10.75
2022-12-26T08:38:22.180Z,10.68
2022-12-26T08:40:56.098Z,10.65
2022-12-26T08:46:15.413Z,10.66
2022-12-26T08:48:46.952Z,10.66
2022-12-26T08:51:20.934Z,10.65
2022-12-26T08:53:53.353Z,10.59
2022-12-26T08:56:26.930Z,10.64
2022-12-26T08:58:59.053Z,10.76
2022-12-26T09:01:32.320Z,10.75
2022-12-26T09:04:06.670Z,10.75
2022-12-26T09:06:39.497Z,10.66
2022-12-26T09:09:13.906Z,10.73
2022-12-26T09:11:45.961Z,10.70
2022-12-26T09:14:17.583Z,10.68
2022-12-26T09:16:51.300Z,10.66
2022-12-26T09:19:23.278Z,10.71
2022-12-26T09:21:55.402Z,10.80
2022-12-26T09:24:26.220Z,10.83
2022-12-26T09:26:56.757Z,10.75
2022-12-26T09:29:28.474Z,10.75
2022-12-26T09:32:01.795Z,10.69
2022-12-26T09:34:33.524Z,10.76
2022-12-26T09:37:04.282Z,10.72
2022-12-26T09:39:37.620Z,10.67
2022-12-26T09:42:11.127Z,10.78
2022-12-26T09:44:44.682Z,10.94
2022-12-26T09:47:38.153Z,10.78
2022-12-26T09:50:15.037Z,10.88
2022-12-26T09:53:11.713Z,10.97
2022-12-26T09:55:46.270Z,11.06
2022-12-26T09:58:36.529Z,10.92
2022-12-26T10:01:21.552Z,11.14
2022-12-26T10:03:56.780Z,11.10
2022-12-26T10:06:42.384Z,11.06
2022-12-26T10:09:27.657Z,11.03
2022-12-26T10:12:14.000Z,10.95
2022-12-26T10:15:20.587Z,10.94
2022-12-26T10:18:12.352Z,11.04
2022-12-26T10:21:11.843Z,10.95
2022-12-26T10:23:45.550Z,10.92
2022-12-26T10:26:21.915Z,11.12
2022-12-26T10:29:10.743Z,11.04
2022-12-26T10:31:49.601Z,11.00
2022-12-26T10:34:36.099Z,11.02
2022-12-26T10:37:28.334Z,10.90
2022-12-26T10:40:04.098Z,10.83
2022-12-26T10:42:49.675Z,10.79
2022-12-26T10:45:31.622Z,10.84
2022-12-26T10:48:03.975Z,10.88
2022-12-26T10:50:38.098Z,10.80
2022-12-26T10:53:10.836Z,10.78
2022-12-26T10:55:43.105Z,10.80
2022-12-26T10:58:33.637Z,10.73
2022-12-26T11:01:32.510Z,10.72
2022-12-26T11:05:10.051Z,10.74
2022-12-26T11:06:58.548Z,10.64
2022-12-26T11:09:46.995Z,10.64
2022-12-26T11:12:22.691Z,10.56
2022-12-26T11:14:58.654Z,10.56
2022-12-26T11:17:35.148Z,10.44
2022-12-26T11:20:21.385Z,10.51
2022-12-26T11:22:52.807Z,10.66
2022-12-26T11:25:29.052Z,10.58
2022-12-26T11:28:01.001Z,10.42
2022-12-26T11:30:35.132Z,10.52
2022-12-26T11:33:14.258Z,10.52
2022-12-26T11:35:46.477Z,10.51
2022-12-26T11:38:44.176Z,10.51
2022-12-26T11:41:32.395Z,10.40
2022-12-26T11:44:19.542Z,10.28
2022-12-26T11:46:59.590Z,10.58
2022-12-26T11:49:52.038Z,10.68
2022-12-26T11:52:42.284Z,10.67
2022-12-26T11:55:38.041Z,10.71
2022-12-26T11:58:12.159Z,10.68
2022-12-26T12:00:54.839Z,10.78
2022-12-26T12:03:49.609Z,10.86
2022-12-26T12:06:36.494Z,10.78
2022-12-26T12:09:10.060Z,10.86
2022-12-26T12:11:58.684Z,10.73
2022-12-26T12:14:54.928Z,10.70
2022-12-26T12:17:31.254Z,10.66
2022-12-26T12:20:24.474Z,10.48
2022-12-26T12:23:09.133Z,10.58
2022-12-26T12:25:42.692Z,10.54
2022-12-26T12:28:24.733Z,10.48
2022-12-26T12:30:59.520Z,10.44
2022-12-26T12:33:54.035Z,10.48
2022-12-26T12:36:38.082Z,10.45
2022-12-26T12:39:14.413Z,10.28
2022-12-26T12:42:16.323Z,10.34
2022-12-26T12:44:56.642Z,11.32
2022-12-26T12:47:38.318Z,11.38
2022-12-26T12:50:23.868Z,12.08
2022-12-26T12:53:03.286Z,12.28
2022-12-26T12:55:40.774Z,12.46
2022-12-26T12:58:24.775Z,12.36
2022-12-26T13:01:05.716Z,11.84
2022-12-26T13:03:42.893Z,11.62
2022-12-26T13:06:16.438Z,11.38
2022-12-26T13:09:06.833Z,11.34
2022-12-26T13:11:49.715Z,11.02
2022-12-26T13:14:25.975Z,11.06
2022-12-26T13:16:59.563Z,10.81
2022-12-26T13:19:40.627Z,10.70
2022-12-26T13:22:29.448Z,10.71
2022-12-26T13:25:02.363Z,10.54
2022-12-26T13:27:35.967Z,10.53
2022-12-26T13:30:12.296Z,10.54
2022-12-26T13:32:46.569Z,10.50
2022-12-26T13:35:55.635Z,10.56
2022-12-26T13:38:33.703Z,10.38
2022-12-26T13:41:23.645Z,10.24
2022-12-26T13:44:06.525Z,10.16
2022-12-26T13:46:44.376Z,10.16
2022-12-26T13:49:40.088Z,10.06
2022-12-26T13:52:18.638Z,9.97
2022-12-26T13:54:52.410Z,9.94
2022-12-26T13:57:29.129Z,10.05
2022-12-26T14:00:34.497Z,10.11
2022-12-26T14:03:36.642Z,10.12
2022-12-26T14:06:37.576Z,10.28
2022-12-26T14:09:22.863Z,10.23
2022-12-26T14:12:23.693Z,10.23
2022-12-26T14:15:07.692Z,10.32
2022-12-26T14:18:11.131Z,10.11
2022-12-26T14:20:58.473Z,10.27
2022-12-26T14:24:03.622Z,10.10
2022-12-26T14:26:44.242Z,9.96
2022-12-26T14:29:40.237Z,9.98
2022-12-26T14:32:51.720Z,9.95
2022-12-26T14:35:34.188Z,9.88
2022-12-26T14:38:28.860Z,9.66
2022-12-26T14:41:06.707Z,9.65
2022-12-26T14:43:44.330Z,9.80
2022-12-26T14:46:37.531Z,9.80
2022-12-26T14:49:31.900Z,9.66
2022-12-26T14:52:28.388Z,9.92
2022-12-26T14:55:04.605Z,9.97
2022-12-26T14:57:44.136Z,9.92
2022-12-26T15:00:28.819Z,9.91
2022-12-26T15:03:10.042Z,10.06
2022-12-26T15:05:43.790Z,10.06
2022-12-26T15:08:35.418Z,10.10
2022-12-26T15:11:26.194Z,10.22
2022-12-26T15:14:22.009Z,10.11
2022-12-26T15:17:13.066Z,10.20
2022-12-26T15:19:47.508Z,10.25
2022-12-26T15:22:38.905Z,10.16
2022-12-26T15:25:25.238Z,10.12
2022-12-26T15:28:15.605Z,10.14
2022-12-26T15:30:53.806Z,9.94
2022-12-26T15:33:40.360Z,9.97
2022-12-26T15:36:26.348Z,9.74
2022-12-26T15:39:18.990Z,9.85
2022-12-26T15:42:00.223Z,9.80
2022-12-26T15:44:36.541Z,9.71
2022-12-26T15:47:13.200Z,9.62
2022-12-26T15:50:01.671Z,9.67
2022-12-26T15:52:44.165Z,9.63
2022-12-26T15:55:20.295Z,9.58
2022-12-26T15:57:54.432Z,9.54
2022-12-26T16:00:31.036Z,9.52
2022-12-26T16:03:11.577Z,9.53
2022-12-26T16:05:47.993Z,9.44
2022-12-26T16:08:37.613Z,9.51
2022-12-26T16:11:15.255Z,9.74
2022-12-26T16:13:57.162Z,9.72
2022-12-26T16:16:31.727Z,9.76
2022-12-26T16:19:22.810Z,9.75
2022-12-26T16:22:20.389Z,9.96
2022-12-26T16:24:52.813Z,9.94
2022-12-26T16:27:27.698Z,9.78
2022-12-26T16:30:11.626Z,9.88
2022-12-26T16:32:42.304Z,9.75
2022-12-26T16:35:22.261Z,9.83
2022-12-26T16:37:59.708Z,9.88
2022-12-26T16:40:51.749Z,9.96
2022-12-26T16:43:31.475Z,9.86
2022-12-26T16:46:06.456Z,9.94
2022-12-26T16:48:37.739Z,9.90
2022-12-26T16:51:11.072Z,9.94
2022-12-26T16:53:44.677Z,9.92
2022-12-26T16:56:30.567Z,9.82
2022-12-26T16:59:18.040Z,9.88
2022-12-26T17:02:03.246Z,9.89
2022-12-26T17:04:34.555Z,9.92
2022-12-26T17:07:10.881Z,9.92
2022-12-26T17:09:45.737Z,9.86
2022-12-26T17:12:28.693Z,9.96
2022-12-26T17:15:03.398Z,9.98
2022-12-26T17:17:36.927Z,9.94
2022-12-26T17:20:29.384Z,9.94
2022-12-26T17:23:00.238Z,9.92
2022-12-26T17:25:34.375Z,9.82
2022-12-26T17:28:17.845Z,9.80
2022-12-26T17:30:49.704Z,9.78
2022-12-26T17:33:28.836Z,9.77
2022-12-26T17:37:08.371Z,9.67
2022-12-26T17:38:41.660Z,9.60
2022-12-26T17:41:17.723Z,9.50
2022-12-26T17:43:48.492Z,9.46
2022-12-26T17:46:19.590Z,9.36
2022-12-26T17:48:50.418Z,9.34
2022-12-26T17:51:21.874Z,9.24
2022-12-26T17:53:53.301Z,9.17
2022-12-26T17:56:28.154Z,9.22
2022-12-26T17:59:00.912Z,9.14
2022-12-26T18:01:33.089Z,9.10
2022-12-26T18:04:05.185Z,9.09
2022-12-26T18:06:37.370Z,9.03
2022-12-26T18:09:10.288Z,9.00
2022-12-26T18:11:40.843Z,8.98
2022-12-26T18:14:14.547Z,9.04
2022-12-26T18:16:45.732Z,8.94
2022-12-26T18:19:17.702Z,8.97
2022-12-26T18:21:48.303Z,8.96
2022-12-26T18:24:20.795Z,8.92
2022-12-26T18:26:51.746Z,8.79
2022-12-26T18:29:24.391Z,8.76
2022-12-26T18:31:56.791Z,8.74
2022-12-26T18:34:30.655Z,8.65
2022-12-26T18:37:04.288Z,8.71
2022-12-26T18:39:36.295Z,8.62
2022-12-26T18:42:19.399Z,8.55
2022-12-26T18:44:52.238Z,8.42
2022-12-26T18:47:24.443Z,8.36
2022-12-26T18:50:00.413Z,8.38
2022-12-26T18:52:31.283Z,8.23
2022-12-26T18:55:05.032Z,8.26
2022-12-26T18:57:36.295Z,8.22
2022-12-26T19:00:12.516Z,8.20
2022-12-26T19:05:37.592Z,8.16
2022-12-26T19:08:11.123Z,8.18
2022-12-26T19:10:46.705Z,8.08
2022-12-26T19:13:17.737Z,8.03
2022-12-26T19:15:49.893Z,8.00
2022-12-26T19:18:24.294Z,7.91
2022-12-26T19:20:56.126Z,7.82
2022-12-26T19:23:29.686Z,7.78
2022-12-26T19:26:06.872Z,7.80
2022-12-26T19:28:37.330Z,7.68
2022-12-26T19:31:16.494Z,7.66
2022-12-26T19:33:48.370Z,7.53
2022-12-26T19:36:19.190Z,7.44
2022-12-26T19:38:50.626Z,7.32
2022-12-26T19:41:22.277Z,7.31
2022-12-26T19:44:00.762Z,7.32
2022-12-26T19:46:31.337Z,7.30
2022-12-26T19:49:03.264Z,7.28
2022-12-26T19:51:34.130Z,7.22
2022-12-26T19:54:06.897Z,7.18
2022-12-26T19:56:39.592Z,7.17
2022-12-26T19:59:11.623Z,7.18
2022-12-26T20:01:45.778Z,7.14
2022-12-26T20:04:17.913Z,7.18
2022-12-26T20:06:52.094Z,7.12
2022-12-26T20:09:25.657Z,7.11
2022-12-26T20:11:56.489Z,7.19
2022-12-26T20:14:32.834Z,7.10
2022-12-26T20:17:07.206Z,7.04
2022-12-26T20:19:38.037Z,7.08
2022-12-26T20:22:10.632Z,7.06
2022-12-26T20:24:41.174Z,6.95
2022-12-26T20:27:13.536Z,6.84
2022-12-26T20:29:44.044Z,6.84
2022-12-26T20:32:16.031Z,6.79
2022-12-26T20:34:48.660Z,6.74
2022-12-26T20:37:19.545Z,6.80
2022-12-26T20:39:50.556Z,6.76
2022-12-26T20:42:22.495Z,6.74
2022-12-26T20:44:56.740Z,6.69
2022-12-26T20:47:28.901Z,6.64
2022-12-26T20:50:00.489Z,6.64
2022-12-26T20:52:34.246Z,6.58
2022-12-26T20:55:06.227Z,6.58
2022-12-26T20:57:36.743Z,6.55
2022-12-26T21:00:09.674Z,6.53
2022-12-26T21:02:41.417Z,6.36
2022-12-26T21:05:12.823Z,6.30
2022-12-26T21:07:45.416Z,6.26
2022-12-26T21:10:24.560Z,6.10
2022-12-26T21:12:55.228Z,6.03
2022-12-26T21:15:27.179Z,6.19
2022-12-26T21:18:02.402Z,6.03
2022-12-26T21:20:37.476Z,5.96
2022-12-26T21:23:09.993Z,6.00
2022-12-26T21:25:43.229Z,6.06
2022-12-26T21:28:16.515Z,5.93
2022-12-26T21:30:47.116Z,6.02
2022-12-26T21:33:20.226Z,5.98
2022-12-26T21:35:55.421Z,6.04
2022-12-26T21:38:31.740Z,6.02
2022-12-26T21:41:05.585Z,6.21
2022-12-26T21:43:36.388Z,6.11
2022-12-26T21:46:14.444Z,6.10
2022-12-26T21:48:50.195Z,6.08
2022-12-26T21:51:27.532Z,6.04
2022-12-26T21:53:59.849Z,6.14
2022-12-26T21:56:37.031Z,6.10
2022-12-26T21:59:25.331Z,6.06
2022-12-26T22:01:58.666Z,6.13
2022-12-26T22:04:32.062Z,6.15
2022-12-26T22:07:02.485Z,6.06
2022-12-26T22:09:36.466Z,6.14
2022-12-26T22:12:25.256Z,6.06
2022-12-26T22:14:58.663Z,6.11
2022-12-26T22:17:31.902Z,6.14
2022-12-26T22:20:04.338Z,6.18
2022-12-26T22:22:37.375Z,6.10
2022-12-26T22:25:10.909Z,6.11
2022-12-26T22:27:42.540Z,6.41
2022-12-26T22:30:13.751Z,6.26
2022-12-26T22:32:44.235Z,6.22
2022-12-26T22:35:18.748Z,6.32
2022-12-26T22:37:48.555Z,6.22
2022-12-26T22:40:23.833Z,6.26
2022-12-26T22:42:54.354Z,6.24
2022-12-26T22:45:24.790Z,6.26
2022-12-26T22:47:55.498Z,6.16
2022-12-26T22:50:26.010Z,6.74
2022-12-26T22:53:01.906Z,6.80
2022-12-26T22:55:34.408Z,7.54
2022-12-26T22:58:05.148Z,7.00
2022-12-26T23:00:36.028Z,6.61
2022-12-26T23:03:09.992Z,6.62
2022-12-26T23:05:41.430Z,6.38
2022-12-26T23:08:19.305Z,6.26
2022-12-26T23:10:50.724Z,6.19
2022-12-26T23:13:21.963Z,6.28
2022-12-26T23:16:01.206Z,6.25
2022-12-26T23:19:05.523Z,6.18
2022-12-26T23:21:41.003Z,6.12
2022-12-26T23:24:16.520Z,6.27
2022-12-26T23:26:56.324Z,6.08
2022-12-26T23:29:44.989Z,6.10
2022-12-26T23:32:18.691Z,5.98
2022-12-26T23:34:49.168Z,5.96
2022-12-26T23:37:20.454Z,6.02
2022-12-26T23:39:52.756Z,6.01
2022-12-26T23:42:23.578Z,5.83
2022-12-26T23:44:54.171Z,5.98
2022-12-26T23:47:24.785Z,5.93
2022-12-26T23:49:55.318Z,5.88
2022-12-26T23:52:30.294Z,5.85
2022-12-26T23:54:59.568Z,5.76
2022-12-26T23:57:31.079Z,5.99
